Terminal Aerodrome Forecast
Issued by NWS Twin Cities, MN

Home | Current Version | Previous Version | Text Only | Print | Product List | Glossary On
Versions: 1 2 3 4 5 6 7 8 9 10 11 12 13 14 15 16 17 18 19 20 21 22 23 24
268
FTUS43 KMPX 241800 CCA
TAFEAU
TAF COR
KEAU 241800Z 2418/2518 10006KT P6SM SCT025
     FM241900 13006KT P6SM SCT250
     FM242100 14006KT P6SM SKC
     FM250100 14003KT P6SM SCT250
     FM251000 14007KT P6SM SCT020 BKN100 PROB30 2512/2516 -SHRA
      BKN020=

USA.gov is the U.S. government's official web portal to all federal, state and local government web resources and services.